WXM80 ListenWXM80 Stop

You find our weather info also at:

UK Metoffice

WeatherCloud

Weather Underground

Northeastern Weather Network

AWEKAS

Citizen Weather Observer Program (CWOP)

HAMweather, WeatherForYou, PWS Weather


Weather Underground History page Text

Daily Summary for February 21, 2017 Units:  Both    English   Metric
« Previous Day
Next Day »
Daily Weekly Monthly Yearly Custom
  High: Low: Average:
Temperature: 45.3 °F /  7.4 °C 31.9 °F /  -0.1 °C 38.8 °F /  3.8 °C
Dew Point: 36.8 °F /  2.7 °C 19.5 °F /  -6.9 °C 28.9 °F /  -1.7 °C
Humidity: 85 % 54 % 68 %
Wind Speed: 6.3 mph /  10.1 km/h - 2.3 mph /  3.7 km/h
Wind Gust: 11.0 mph /  17.7 km/h - -
Wind:- - ESE
Pressure: 30.37 in /  1028.3 hPa 30.08 in /  1018.5 hPa -
Precipitation: 0.00 in /  0 mm    
Historical Graphs
 
 
Tabular Data for February 21, 2017
Time Temperature Dew Point Pressure Wind Wind Speed Wind Gust Humidity Rainfall Rate (Hourly)
00:03 35.7 °F /  2.1 °C 25.1 °F /  -3.8 °C 30.33 in /  1027 hPa NE 0.2 mph /  0.3 km/h 1.2 mph /  1.9 km/h 65 % 0.00 in /  0 mm
00:08 35.5 °F /  1.9 °C 24.9 °F /  -3.9 °C 30.33 in /  1027 hPa Calm     65 % 0.00 in /  0 mm
00:13 35.3 °F /  1.8 °C 25.1 °F /  -3.8 °C 30.33 in /  1027 hPa NE 0.2 mph /  0.3 km/h 2.3 mph /  3.7 km/h 66 % 0.00 in /  0 mm
00:18 35.0 °F /  1.7 °C 24.8 °F /  -4 °C 30.33 in /  1027 hPa NE 0.2 mph /  0.3 km/h 2.3 mph /  3.7 km/h 66 % 0.00 in /  0 mm
00:23 34.8 °F /  1.6 °C 24.6 °F /  -4.1 °C 30.33 in /  1027 hPa Calm     66 % 0.00 in /  0 mm
00:28 34.5 °F /  1.4 °C 24.7 °F /  -4.1 °C 30.34 in /  1027.3 hPa NE 0.1 mph /  0.2 km/h 2.3 mph /  3.7 km/h 67 % 0.00 in /  0 mm
00:33 34.1 °F /  1.2 °C 24.6 °F /  -4.1 °C 30.34 in /  1027.3 hPa NE 0.4 mph /  0.6 km/h 1.2 mph /  1.9 km/h 68 % 0.00 in /  0 mm
00:38 33.9 °F /  1.1 °C 24.1 °F /  -4.4 °C 30.34 in /  1027.3 hPa Calm     67 % 0.00 in /  0 mm
00:43 33.7 °F /  0.9 °C 23.9 °F /  -4.5 °C 30.34 in /  1027.3 hPa Calm     67 % 0.00 in /  0 mm
00:48 33.6 °F /  0.9 °C 24.5 °F /  -4.2 °C 30.33 in /  1027 hPa Calm   1.2 mph /  1.9 km/h 69 % 0.00 in /  0 mm
00:53 33.5 °F /  0.8 °C 24.1 °F /  -4.4 °C 30.34 in /  1027.3 hPa Calm     68 % 0.00 in /  0 mm
00:58 33.4 °F /  0.8 °C 24.3 °F /  -4.3 °C 30.34 in /  1027.3 hPa Calm     69 % 0.00 in /  0 mm
01:03 33.3 °F /  0.7 °C 23.9 °F /  -4.5 °C 30.34 in /  1027.3 hPa Calm     68 % 0.00 in /  0 mm
01:08 33.2 °F /  0.7 °C 24.1 °F /  -4.4 °C 30.34 in /  1027.3 hPa NE 0.5 mph /  0.8 km/h 2.3 mph /  3.7 km/h 69 % 0.00 in /  0 mm
01:13 33.1 °F /  0.6 °C 23.7 °F /  -4.6 °C 30.34 in /  1027.3 hPa Calm     68 % 0.00 in /  0 mm
01:18 33.0 °F /  0.6 °C 23.6 °F /  -4.7 °C 30.34 in /  1027.3 hPa Calm     68 % 0.00 in /  0 mm
01:23 32.8 °F /  0.4 °C 23.7 °F /  -4.6 °C 30.34 in /  1027.3 hPa Calm     69 % 0.00 in /  0 mm
01:28 32.6 °F /  0.3 °C 23.6 °F /  -4.7 °C 30.35 in /  1027.7 hPa Calm     69 % 0.00 in /  0 mm
01:33 32.4 °F /  0.2 °C 23.7 °F /  -4.6 °C 30.35 in /  1027.7 hPa ENE 0.3 mph /  0.5 km/h 1.2 mph /  1.9 km/h 70 % 0.00 in /  0 mm
01:38 32.3 °F /  0.2 °C 23.3 °F /  -4.8 °C 30.35 in /  1027.7 hPa Calm   1.0 mph /  1.6 km/h 69 % 0.00 in /  0 mm
01:43 32.1 °F /  0.1 °C 23.1 °F /  -4.9 °C 30.34 in /  1027.3 hPa Calm     69 % 0.00 in /  0 mm
01:49 32.1 °F /  0.1 °C 22.7 °F /  -5.2 °C 30.34 in /  1027.3 hPa Calm     68 % 0.00 in /  0 mm
01:54 32.1 °F /  0.1 °C 22.7 °F /  -5.2 °C 30.34 in /  1027.3 hPa ENE 0.9 mph /  1.4 km/h 2.3 mph /  3.7 km/h 68 % 0.00 in /  0 mm
01:59 32.0 °F /  0 °C 22.6 °F /  -5.2 °C 30.34 in /  1027.3 hPa NE 1.9 mph /  3.1 km/h 4.0 mph /  6.4 km/h 68 % 0.00 in /  0 mm
02:04 31.9 °F /  -0.1 °C 21.5 °F /  -5.8 °C 30.34 in /  1027.3 hPa ENE 2.4 mph /  3.9 km/h 4.6 mph /  7.4 km/h 65 % 0.00 in /  0 mm
02:09 31.9 °F /  -0.1 °C 21.1 °F /  -6.1 °C 30.34 in /  1027.3 hPa ENE 3.8 mph /  6.1 km/h 4.6 mph /  7.4 km/h 64 % 0.00 in /  0 mm
02:14 32.4 °F /  0.2 °C 20.4 °F /  -6.4 °C 30.34 in /  1027.3 hPa ENE 2.8 mph /  4.5 km/h 4.6 mph /  7.4 km/h 61 % 0.00 in /  0 mm
02:19 32.9 °F /  0.5 °C 20.5 °F /  -6.4 °C 30.34 in /  1027.3 hPa ENE 2.4 mph /  3.9 km/h 3.5 mph /  5.6 km/h 60 % 0.00 in /  0 mm
02:24 33.2 °F /  0.7 °C 20.4 °F /  -6.4 °C 30.35 in /  1027.7 hPa ENE 2.7 mph /  4.3 km/h 3.5 mph /  5.6 km/h 59 % 0.00 in /  0 mm
02:29 33.5 °F /  0.8 °C 21.1 °F /  -6.1 °C 30.35 in /  1027.7 hPa ENE 2.2 mph /  3.5 km/h 3.5 mph /  5.6 km/h 60 % 0.00 in /  0 mm
02:34 33.6 °F /  0.9 °C 21.2 °F /  -6 °C 30.34 in /  1027.3 hPa NE 2.5 mph /  4 km/h 3.5 mph /  5.6 km/h 60 % 0.00 in /  0 mm
02:39 33.8 °F /  1 °C 20.6 °F /  -6.3 °C 30.34 in /  1027.3 hPa East 4.5 mph /  7.2 km/h 6.9 mph /  11.1 km/h 58 % 0.00 in /  0 mm
02:44 34.1 °F /  1.2 °C 19.6 °F /  -6.9 °C 30.34 in /  1027.3 hPa ENE 4.6 mph /  7.4 km/h 6.9 mph /  11.1 km/h 55 % 0.00 in /  0 mm
02:49 34.4 °F /  1.3 °C 19.5 °F /  -6.9 °C 30.34 in /  1027.3 hPa ENE 3.3 mph /  5.3 km/h 8.1 mph /  13 km/h 54 % 0.00 in /  0 mm
02:54 34.6 °F /  1.4 °C 20.1 °F /  -6.6 °C 30.34 in /  1027.3 hPa ENE 3.9 mph /  6.3 km/h 8.1 mph /  13 km/h 55 % 0.00 in /  0 mm
02:59 34.7 °F /  1.5 °C 20.2 °F /  -6.6 °C 30.33 in /  1027 hPa NE 3.4 mph /  5.5 km/h 6.9 mph /  11.1 km/h 55 % 0.00 in /  0 mm
03:04 34.7 °F /  1.5 °C 19.7 °F /  -6.8 °C 30.33 in /  1027 hPa ENE 3.5 mph /  5.6 km/h 8.0 mph /  12.9 km/h 54 % 0.00 in /  0 mm
03:09 34.7 °F /  1.5 °C 20.6 °F /  -6.3 °C 30.33 in /  1027 hPa ENE 3.3 mph /  5.3 km/h 4.6 mph /  7.4 km/h 56 % 0.00 in /  0 mm
03:14 34.7 °F /  1.5 °C 21.0 °F /  -6.1 °C 30.33 in /  1027 hPa ENE 3.6 mph /  5.8 km/h 4.6 mph /  7.4 km/h 57 % 0.00 in /  0 mm
03:19 34.6 °F /  1.4 °C 20.5 °F /  -6.4 °C 30.33 in /  1027 hPa ENE 2.7 mph /  4.3 km/h 6.9 mph /  11.1 km/h 56 % 0.00 in /  0 mm
03:24 34.6 °F /  1.4 °C 21.3 °F /  -5.9 °C 30.33 in /  1027 hPa ENE 2.4 mph /  3.9 km/h 3.5 mph /  5.6 km/h 58 % 0.00 in /  0 mm
03:30 34.5 °F /  1.4 °C 21.2 °F /  -6 °C 30.33 in /  1027 hPa NE 2.3 mph /  3.7 km/h 3.5 mph /  5.6 km/h 58 % 0.00 in /  0 mm
03:35 34.4 °F /  1.3 °C 21.1 °F /  -6.1 °C 30.33 in /  1027 hPa NE 2.3 mph /  3.7 km/h 3.5 mph /  5.6 km/h 58 % 0.00 in /  0 mm
03:40 34.3 °F /  1.3 °C 21.0 °F /  -6.1 °C 30.34 in /  1027.3 hPa ENE 2.1 mph /  3.4 km/h 3.5 mph /  5.6 km/h 58 % 0.00 in /  0 mm
03:45 34.1 °F /  1.2 °C 21.3 °F /  -5.9 °C 30.34 in /  1027.3 hPa ENE 3.0 mph /  4.8 km/h 6.9 mph /  11.1 km/h 59 % 0.00 in /  0 mm
03:50 34.0 °F /  1.1 °C 21.6 °F /  -5.8 °C 30.33 in /  1027 hPa ENE 2.8 mph /  4.5 km/h 4.0 mph /  6.4 km/h 60 % 0.00 in /  0 mm
03:55 33.9 °F /  1.1 °C 21.9 °F /  -5.6 °C 30.34 in /  1027.3 hPa ENE 1.9 mph /  3.1 km/h 3.5 mph /  5.6 km/h 61 % 0.00 in /  0 mm
04:00 33.8 °F /  1 °C 21.8 °F /  -5.7 °C 30.33 in /  1027 hPa ENE 3.8 mph /  6.1 km/h 5.8 mph /  9.3 km/h 61 % 0.00 in /  0 mm
04:05 33.8 °F /  1 °C 21.8 °F /  -5.7 °C 30.34 in /  1027.3 hPa ENE 2.7 mph /  4.3 km/h 3.5 mph /  5.6 km/h 61 % 0.00 in /  0 mm
04:10 33.8 °F /  1 °C 22.1 °F /  -5.5 °C 30.34 in /  1027.3 hPa NE 2.0 mph /  3.2 km/h 4.6 mph /  7.4 km/h 62 % 0.00 in /  0 mm
04:15 33.9 °F /  1.1 °C 22.2 °F /  -5.4 °C 30.34 in /  1027.3 hPa ENE 4.5 mph /  7.2 km/h 8.0 mph /  12.9 km/h 62 % 0.00 in /  0 mm
04:20 34.0 °F /  1.1 °C 23.1 °F /  -4.9 °C 30.34 in /  1027.3 hPa ENE 2.3 mph /  3.7 km/h 3.5 mph /  5.6 km/h 64 % 0.00 in /  0 mm
04:25 34.1 °F /  1.2 °C 23.2 °F /  -4.9 °C 30.35 in /  1027.7 hPa East 3.2 mph /  5.1 km/h 7.0 mph /  11.3 km/h 64 % 0.00 in /  0 mm
04:30 34.2 °F /  1.2 °C 23.3 °F /  -4.8 °C 30.35 in /  1027.7 hPa ENE 5.0 mph /  8 km/h 7.0 mph /  11.3 km/h 64 % 0.00 in /  0 mm
04:35 34.3 °F /  1.3 °C 23.7 °F /  -4.6 °C 30.35 in /  1027.7 hPa ENE 3.2 mph /  5.1 km/h 5.0 mph /  8 km/h 65 % 0.00 in /  0 mm
04:40 34.4 °F /  1.3 °C 23.1 °F /  -4.9 °C 30.36 in /  1028 hPa ENE 5.0 mph /  8 km/h 8.1 mph /  13 km/h 63 % 0.00 in /  0 mm
04:45 34.5 °F /  1.4 °C 23.6 °F /  -4.7 °C 30.35 in /  1027.7 hPa ENE 3.7 mph /  6 km/h 5.8 mph /  9.3 km/h 64 % 0.00 in /  0 mm
04:50 34.4 °F /  1.3 °C 23.8 °F /  -4.6 °C 30.36 in /  1028 hPa ENE 3.9 mph /  6.3 km/h 7.0 mph /  11.3 km/h 65 % 0.00 in /  0 mm
04:55 34.4 °F /  1.3 °C 23.5 °F /  -4.7 °C 30.36 in /  1028 hPa NE 2.7 mph /  4.3 km/h 4.6 mph /  7.4 km/h 64 % 0.00 in /  0 mm
05:00 34.4 °F /  1.3 °C 23.8 °F /  -4.6 °C 30.36 in /  1028 hPa ENE 2.9 mph /  4.7 km/h 5.8 mph /  9.3 km/h 65 % 0.00 in /  0 mm
05:05 34.4 °F /  1.3 °C 23.8 °F /  -4.6 °C 30.36 in /  1028 hPa ENE 2.2 mph /  3.5 km/h 3.5 mph /  5.6 km/h 65 % 0.00 in /  0 mm
05:10 34.3 °F /  1.3 °C 24.1 °F /  -4.4 °C 30.36 in /  1028 hPa ENE 2.6 mph /  4.2 km/h 4.0 mph /  6.4 km/h 66 % 0.00 in /  0 mm
05:15 34.3 °F /  1.3 °C 24.1 °F /  -4.4 °C 30.36 in /  1028 hPa East 2.9 mph /  4.7 km/h 6.0 mph /  9.7 km/h 66 % 0.00 in /  0 mm
05:21 34.3 °F /  1.3 °C 24.1 °F /  -4.4 °C 30.37 in /  1028.3 hPa ENE 2.5 mph /  4 km/h 4.6 mph /  7.4 km/h 66 % 0.00 in /  0 mm
05:26 34.2 °F /  1.2 °C 23.7 °F /  -4.6 °C 30.37 in /  1028.3 hPa ENE 2.8 mph /  4.5 km/h 3.5 mph /  5.6 km/h 65 % 0.00 in /  0 mm
05:31 34.1 °F /  1.2 °C 23.6 °F /  -4.7 °C 30.37 in /  1028.3 hPa ENE 2.8 mph /  4.5 km/h 4.6 mph /  7.4 km/h 65 % 0.00 in /  0 mm
05:36 34.1 °F /  1.2 °C 23.6 °F /  -4.7 °C 30.37 in /  1028.3 hPa NE 3.0 mph /  4.8 km/h 3.5 mph /  5.6 km/h 65 % 0.00 in /  0 mm
05:41 34.0 °F /  1.1 °C 23.5 °F /  -4.7 °C 30.37 in /  1028.3 hPa NE 4.6 mph /  7.4 km/h 8.1 mph /  13 km/h 65 % 0.00 in /  0 mm
05:46 34.0 °F /  1.1 °C 23.5 °F /  -4.7 °C 30.37 in /  1028.3 hPa ENE 1.4 mph /  2.3 km/h 3.5 mph /  5.6 km/h 65 % 0.00 in /  0 mm
05:51 34.0 °F /  1.1 °C 23.5 °F /  -4.7 °C 30.37 in /  1028.3 hPa ENE 2.5 mph /  4 km/h 3.5 mph /  5.6 km/h 65 % 0.00 in /  0 mm
05:56 33.9 °F /  1.1 °C 23.7 °F /  -4.6 °C 30.36 in /  1028 hPa NE 0.4 mph /  0.6 km/h 2.3 mph /  3.7 km/h 66 % 0.00 in /  0 mm
06:01 33.8 °F /  1 °C 23.6 °F /  -4.7 °C 30.35 in /  1027.7 hPa ENE 2.4 mph /  3.9 km/h 3.5 mph /  5.6 km/h 66 % 0.00 in /  0 mm
06:06 33.6 °F /  0.9 °C 23.4 °F /  -4.8 °C 30.35 in /  1027.7 hPa ENE 3.3 mph /  5.3 km/h 6.9 mph /  11.1 km/h 66 % 0.00 in /  0 mm
06:11 33.7 °F /  0.9 °C 23.2 °F /  -4.9 °C 30.36 in /  1028 hPa ENE 3.9 mph /  6.3 km/h 6.9 mph /  11.1 km/h 65 % 0.00 in /  0 mm
06:16 33.6 °F /  0.9 °C 23.4 °F /  -4.8 °C 30.35 in /  1027.7 hPa ENE 3.9 mph /  6.3 km/h 5.0 mph /  8 km/h 66 % 0.00 in /  0 mm
06:21 33.7 °F /  0.9 °C 23.5 °F /  -4.7 °C 30.35 in /  1027.7 hPa ENE 3.9 mph /  6.3 km/h 5.0 mph /  8 km/h 66 % 0.00 in /  0 mm
06:26 33.6 °F /  0.9 °C 23.4 °F /  -4.8 °C 30.35 in /  1027.7 hPa ENE 2.9 mph /  4.7 km/h 6.9 mph /  11.1 km/h 66 % 0.00 in /  0 mm
06:31 33.7 °F /  0.9 °C 23.9 °F /  -4.5 °C 30.35 in /  1027.7 hPa NE 4.1 mph /  6.6 km/h 6.0 mph /  9.7 km/h 67 % 0.00 in /  0 mm
06:36 33.7 °F /  0.9 °C 23.9 °F /  -4.5 °C 30.35 in /  1027.7 hPa ENE 3.8 mph /  6.1 km/h 8.1 mph /  13 km/h 67 % 0.00 in /  0 mm
06:41 33.8 °F /  1 °C 24.0 °F /  -4.4 °C 30.34 in /  1027.3 hPa NE 4.9 mph /  7.9 km/h 6.9 mph /  11.1 km/h 67 % 0.00 in /  0 mm
06:46 33.8 °F /  1 °C 24.0 °F /  -4.4 °C 30.34 in /  1027.3 hPa ENE 3.7 mph /  6 km/h 6.9 mph /  11.1 km/h 67 % 0.00 in /  0 mm
06:51 33.9 °F /  1.1 °C 24.1 °F /  -4.4 °C 30.34 in /  1027.3 hPa ENE 4.2 mph /  6.8 km/h 6.9 mph /  11.1 km/h 67 % 0.00 in /  0 mm
06:56 34.1 °F /  1.2 °C 24.3 °F /  -4.3 °C 30.34 in /  1027.3 hPa ENE 3.5 mph /  5.6 km/h 4.6 mph /  7.4 km/h 67 % 0.00 in /  0 mm
07:01 34.3 °F /  1.3 °C 24.8 °F /  -4 °C 30.34 in /  1027.3 hPa ENE 4.1 mph /  6.6 km/h 5.8 mph /  9.3 km/h 68 % 0.00 in /  0 mm
07:06 34.6 °F /  1.4 °C 25.1 °F /  -3.8 °C 30.34 in /  1027.3 hPa ENE 3.1 mph /  5 km/h 4.0 mph /  6.4 km/h 68 % 0.00 in /  0 mm
07:11 34.9 °F /  1.6 °C 25.0 °F /  -3.9 °C 30.34 in /  1027.3 hPa ENE 3.6 mph /  5.8 km/h 5.0 mph /  8 km/h 67 % 0.00 in /  0 mm
07:16 35.2 °F /  1.8 °C 25.3 °F /  -3.7 °C 30.34 in /  1027.3 hPa ENE 2.8 mph /  4.5 km/h 3.5 mph /  5.6 km/h 67 % 0.00 in /  0 mm
07:21 35.3 °F /  1.8 °C 25.4 °F /  -3.7 °C 30.34 in /  1027.3 hPa ENE 2.7 mph /  4.3 km/h 3.5 mph /  5.6 km/h 67 % 0.00 in /  0 mm
07:27 35.5 °F /  1.9 °C 25.6 °F /  -3.6 °C 30.34 in /  1027.3 hPa East 3.7 mph /  6 km/h 5.8 mph /  9.3 km/h 67 % 0.00 in /  0 mm
07:32 35.6 °F /  2 °C 25.4 °F /  -3.7 °C 30.34 in /  1027.3 hPa East 2.6 mph /  4.2 km/h 4.6 mph /  7.4 km/h 66 % 0.00 in /  0 mm
07:37 35.6 °F /  2 °C 25.4 °F /  -3.7 °C 30.35 in /  1027.7 hPa ENE 1.3 mph /  2.1 km/h 2.3 mph /  3.7 km/h 66 % 0.00 in /  0 mm
07:42 35.7 °F /  2.1 °C 25.4 °F /  -3.7 °C 30.36 in /  1028 hPa ENE 1.5 mph /  2.4 km/h 2.3 mph /  3.7 km/h 66 % 0.00 in /  0 mm
07:47 35.7 °F /  2.1 °C 25.1 °F /  -3.8 °C 30.36 in /  1028 hPa ENE 2.6 mph /  4.2 km/h 3.5 mph /  5.6 km/h 65 % 0.00 in /  0 mm
07:52 35.8 °F /  2.1 °C 25.2 °F /  -3.8 °C 30.36 in /  1028 hPa ENE 1.2 mph /  1.9 km/h 2.3 mph /  3.7 km/h 65 % 0.00 in /  0 mm
07:57 35.9 °F /  2.2 °C 25.3 °F /  -3.7 °C 30.36 in /  1028 hPa ENE 0.1 mph /  0.2 km/h 3.5 mph /  5.6 km/h 65 % 0.00 in /  0 mm
08:02 36.0 °F /  2.2 °C 25.4 °F /  -3.7 °C 30.37 in /  1028.3 hPa ENE 0.2 mph /  0.3 km/h 2.3 mph /  3.7 km/h 65 % 0.00 in /  0 mm
08:07 36.1 °F /  2.3 °C 25.8 °F /  -3.4 °C 30.37 in /  1028.3 hPa NE 2.0 mph /  3.2 km/h 3.5 mph /  5.6 km/h 66 % 0.00 in /  0 mm
08:12 36.3 °F /  2.4 °C 26.0 °F /  -3.3 °C 30.37 in /  1028.3 hPa NNE 1.7 mph /  2.7 km/h 3.5 mph /  5.6 km/h 66 % 0.00 in /  0 mm
08:17 36.7 °F /  2.6 °C 26.0 °F /  -3.3 °C 30.37 in /  1028.3 hPa NE 1.9 mph /  3.1 km/h 3.0 mph /  4.8 km/h 65 % 0.00 in /  0 mm
08:22 37.0 °F /  2.8 °C 26.3 °F /  -3.2 °C 30.37 in /  1028.3 hPa North 3.1 mph /  5 km/h 3.5 mph /  5.6 km/h 65 % 0.00 in /  0 mm
08:27 37.4 °F /  3 °C 26.3 °F /  -3.2 °C 30.37 in /  1028.3 hPa NE 1.7 mph /  2.7 km/h 4.6 mph /  7.4 km/h 64 % 0.00 in /  0 mm
08:32 37.5 °F /  3.1 °C 26.0 °F /  -3.3 °C 30.37 in /  1028.3 hPa ENE 1.5 mph /  2.4 km/h 3.5 mph /  5.6 km/h 63 % 0.00 in /  0 mm
08:37 37.7 °F /  3.2 °C 26.2 °F /  -3.2 °C 30.37 in /  1028.3 hPa NNE 2.4 mph /  3.9 km/h 3.5 mph /  5.6 km/h 63 % 0.00 in /  0 mm
08:42 37.9 °F /  3.3 °C 26.4 °F /  -3.1 °C 30.37 in /  1028.3 hPa NNE 0.7 mph /  1.1 km/h 3.5 mph /  5.6 km/h 63 % 0.00 in /  0 mm
08:47 38.3 °F /  3.5 °C 26.8 °F /  -2.9 °C 30.37 in /  1028.3 hPa NNE 1.3 mph /  2.1 km/h 3.5 mph /  5.6 km/h 63 % 0.00 in /  0 mm
08:52 38.6 °F /  3.7 °C 27.5 °F /  -2.5 °C 30.37 in /  1028.3 hPa NE 1.6 mph /  2.6 km/h 3.5 mph /  5.6 km/h 64 % 0.00 in /  0 mm
08:57 38.9 °F /  3.8 °C 27.4 °F /  -2.6 °C 30.37 in /  1028.3 hPa North 2.1 mph /  3.4 km/h 4.0 mph /  6.4 km/h 63 % 0.00 in /  0 mm
09:02 39.1 °F /  3.9 °C 27.6 °F /  -2.4 °C 30.36 in /  1028 hPa NNE 1.6 mph /  2.6 km/h 3.5 mph /  5.6 km/h 63 % 0.00 in /  0 mm
09:07 39.2 °F /  4 °C 27.3 °F /  -2.6 °C 30.36 in /  1028 hPa North 1.1 mph /  1.8 km/h 3.5 mph /  5.6 km/h 62 % 0.00 in /  0 mm
09:12 39.1 °F /  3.9 °C 27.2 °F /  -2.7 °C 30.36 in /  1028 hPa ENE 1.7 mph /  2.7 km/h 3.5 mph /  5.6 km/h 62 % 0.00 in /  0 mm
09:17 39.3 °F /  4.1 °C 27.7 °F /  -2.4 °C 30.36 in /  1028 hPa East 1.1 mph /  1.8 km/h 3.5 mph /  5.6 km/h 63 % 0.00 in /  0 mm
09:22 39.1 °F /  3.9 °C 27.2 °F /  -2.7 °C 30.36 in /  1028 hPa NE 2.3 mph /  3.7 km/h 4.0 mph /  6.4 km/h 62 % 0.00 in /  0 mm
09:28 39.1 °F /  3.9 °C 27.2 °F /  -2.7 °C 30.35 in /  1027.7 hPa NNE 3.4 mph /  5.5 km/h 4.6 mph /  7.4 km/h 62 % 0.00 in /  0 mm
09:33 39.6 °F /  4.2 °C 27.6 °F /  -2.4 °C 30.36 in /  1028 hPa ENE 2.7 mph /  4.3 km/h 5.0 mph /  8 km/h 62 % 0.00 in /  0 mm
09:38 39.7 °F /  4.3 °C 26.9 °F /  -2.8 °C 30.35 in /  1027.7 hPa ENE 2.8 mph /  4.5 km/h 4.6 mph /  7.4 km/h 60 % 0.00 in /  0 mm
09:43 39.5 °F /  4.2 °C 27.2 °F /  -2.7 °C 30.35 in /  1027.7 hPa ENE 2.6 mph /  4.2 km/h 4.0 mph /  6.4 km/h 61 % 0.00 in /  0 mm
09:48 39.5 °F /  4.2 °C 27.5 °F /  -2.5 °C 30.35 in /  1027.7 hPa ENE 3.9 mph /  6.3 km/h 7.0 mph /  11.3 km/h 62 % 0.00 in /  0 mm
09:53 39.7 °F /  4.3 °C 27.7 °F /  -2.4 °C 30.35 in /  1027.7 hPa ENE 2.8 mph /  4.5 km/h 3.5 mph /  5.6 km/h 62 % 0.00 in /  0 mm
09:58 39.7 °F /  4.3 °C 27.3 °F /  -2.6 °C 30.35 in /  1027.7 hPa ENE 3.6 mph /  5.8 km/h 5.0 mph /  8 km/h 61 % 0.00 in /  0 mm
10:03 39.6 °F /  4.2 °C 27.2 °F /  -2.7 °C 30.35 in /  1027.7 hPa NNE 3.6 mph /  5.8 km/h 6.9 mph /  11.1 km/h 61 % 0.00 in /  0 mm
10:08 39.7 °F /  4.3 °C 27.7 °F /  -2.4 °C 30.35 in /  1027.7 hPa East 3.1 mph /  5 km/h 4.6 mph /  7.4 km/h 62 % 0.00 in /  0 mm
10:13 39.5 °F /  4.2 °C 27.5 °F /  -2.5 °C 30.34 in /  1027.3 hPa ENE 4.4 mph /  7.1 km/h 6.9 mph /  11.1 km/h 62 % 0.00 in /  0 mm
10:18 39.2 °F /  4 °C 27.3 °F /  -2.6 °C 30.35 in /  1027.7 hPa ENE 3.8 mph /  6.1 km/h 6.9 mph /  11.1 km/h 62 % 0.00 in /  0 mm
10:23 39.2 °F /  4 °C 27.7 °F /  -2.4 °C 30.35 in /  1027.7 hPa NE 3.3 mph /  5.3 km/h 4.0 mph /  6.4 km/h 63 % 0.00 in /  0 mm
10:28 39.2 °F /  4 °C 28.0 °F /  -2.2 °C 30.35 in /  1027.7 hPa NE 2.0 mph /  3.2 km/h 8.0 mph /  12.9 km/h 64 % 0.00 in /  0 mm
10:33 39.6 °F /  4.2 °C 28.4 °F /  -2 °C 30.35 in /  1027.7 hPa NE 3.0 mph /  4.8 km/h 5.0 mph /  8 km/h 64 % 0.00 in /  0 mm
10:38 39.8 °F /  4.3 °C 28.6 °F /  -1.9 °C 30.35 in /  1027.7 hPa NE 1.0 mph /  1.6 km/h 5.0 mph /  8 km/h 64 % 0.00 in /  0 mm
10:43 40.2 °F /  4.6 °C 28.2 °F /  -2.1 °C 30.34 in /  1027.3 hPa ENE 3.0 mph /  4.8 km/h 5.0 mph /  8 km/h 62 % 0.00 in /  0 mm
10:48 40.3 °F /  4.6 °C 28.3 °F /  -2.1 °C 30.35 in /  1027.7 hPa ENE 2.0 mph /  3.2 km/h 5.0 mph /  8 km/h 62 % 0.00 in /  0 mm
10:53 40.4 °F /  4.7 °C 28.0 °F /  -2.2 °C 30.34 in /  1027.3 hPa ENE 2.6 mph /  4.2 km/h 6.9 mph /  11.1 km/h 61 % 0.00 in /  0 mm
10:58 40.7 °F /  4.8 °C 29.1 °F /  -1.6 °C 30.34 in /  1027.3 hPa NE 2.2 mph /  3.5 km/h 7.0 mph /  11.3 km/h 63 % 0.00 in /  0 mm
11:03 40.9 °F /  4.9 °C 29.3 °F /  -1.5 °C 30.34 in /  1027.3 hPa ENE 2.0 mph /  3.2 km/h 7.0 mph /  11.3 km/h 63 % 0.00 in /  0 mm
11:13 41.9 °F /  5.5 °C 29.4 °F /  -1.4 °C 30.34 in /  1027.3 hPa ENE 3.0 mph /  4.8 km/h 5.0 mph /  8 km/h 61 % 0.00 in /  0 mm
11:18 41.6 °F /  5.3 °C 29.1 °F /  -1.6 °C 30.33 in /  1027 hPa ENE 2.0 mph /  3.2 km/h 7.0 mph /  11.3 km/h 61 % 0.00 in /  0 mm
11:23 41.6 °F /  5.3 °C 29.5 °F /  -1.4 °C 30.33 in /  1027 hPa NE 3.0 mph /  4.8 km/h 6.0 mph /  9.7 km/h 62 % 0.00 in /  0 mm
11:28 42.3 °F /  5.7 °C 31.0 °F /  -0.6 °C 30.32 in /  1026.6 hPa NE 3.0 mph /  4.8 km/h 5.0 mph /  8 km/h 64 % 0.00 in /  0 mm
11:33 42.0 °F /  5.6 °C 29.6 °F /  -1.3 °C 30.32 in /  1026.6 hPa ENE 3.0 mph /  4.8 km/h 7.0 mph /  11.3 km/h 61 % 0.00 in /  0 mm
11:38 41.7 °F /  5.4 °C 29.6 °F /  -1.3 °C 30.32 in /  1026.6 hPa ENE 2.0 mph /  3.2 km/h 7.0 mph /  11.3 km/h 62 % 0.00 in /  0 mm
11:43 41.8 °F /  5.4 °C 29.3 °F /  -1.5 °C 30.32 in /  1026.6 hPa NE 3.0 mph /  4.8 km/h 6.0 mph /  9.7 km/h 61 % 0.00 in /  0 mm
11:48 41.6 °F /  5.3 °C 29.9 °F /  -1.2 °C 30.31 in /  1026.3 hPa ENE 3.0 mph /  4.8 km/h 7.0 mph /  11.3 km/h 63 % 0.00 in /  0 mm
11:53 41.4 °F /  5.2 °C 29.8 °F /  -1.2 °C 30.31 in /  1026.3 hPa NE 2.0 mph /  3.2 km/h 8.0 mph /  12.9 km/h 63 % 0.00 in /  0 mm
11:58 41.5 °F /  5.3 °C 29.8 °F /  -1.2 °C 30.31 in /  1026.3 hPa NE 3.2 mph /  5.1 km/h 4.6 mph /  7.4 km/h 63 % 0.00 in /  0 mm
12:03 41.4 °F /  5.2 °C 29.7 °F /  -1.3 °C 30.31 in /  1026.3 hPa NE 5.0 mph /  8 km/h 8.0 mph /  12.9 km/h 63 % 0.00 in /  0 mm
12:08 40.9 °F /  4.9 °C 29.7 °F /  -1.3 °C 30.30 in /  1026 hPa ENE 5.0 mph /  8 km/h 8.0 mph /  12.9 km/h 64 % 0.00 in /  0 mm
12:13 40.9 °F /  4.9 °C 30.4 °F /  -0.9 °C 30.31 in /  1026.3 hPa ENE 2.0 mph /  3.2 km/h 7.0 mph /  11.3 km/h 66 % 0.00 in /  0 mm
12:18 41.2 °F /  5.1 °C 30.7 °F /  -0.7 °C 30.30 in /  1026 hPa ENE 2.8 mph /  4.5 km/h 5.8 mph /  9.3 km/h 66 % 0.00 in /  0 mm
12:23 41.3 °F /  5.2 °C 30.4 °F /  -0.9 °C 30.30 in /  1026 hPa NE 2.0 mph /  3.2 km/h 5.0 mph /  8 km/h 65 % 0.00 in /  0 mm
12:28 41.4 °F /  5.2 °C 29.7 °F /  -1.3 °C 30.29 in /  1025.6 hPa NE 3.0 mph /  4.8 km/h 7.0 mph /  11.3 km/h 63 % 0.00 in /  0 mm
12:33 41.6 °F /  5.3 °C 30.7 °F /  -0.7 °C 30.29 in /  1025.6 hPa NE 2.0 mph /  3.2 km/h 5.0 mph /  8 km/h 65 % 0.00 in /  0 mm
12:38 42.0 °F /  5.6 °C 30.7 °F /  -0.7 °C 30.29 in /  1025.6 hPa NE 2.0 mph /  3.2 km/h 5.0 mph /  8 km/h 64 % 0.00 in /  0 mm
12:43 41.9 °F /  5.5 °C 31.0 °F /  -0.6 °C 30.28 in /  1025.3 hPa ENE 1.0 mph /  1.6 km/h 5.0 mph /  8 km/h 65 % 0.00 in /  0 mm
12:48 42.2 °F /  5.7 °C 31.3 °F /  -0.4 °C 30.28 in /  1025.3 hPa NE 2.0 mph /  3.2 km/h 7.0 mph /  11.3 km/h 65 % 0.00 in /  0 mm
12:53 42.4 °F /  5.8 °C 30.7 °F /  -0.7 °C 30.28 in /  1025.3 hPa NE 2.0 mph /  3.2 km/h 5.0 mph /  8 km/h 63 % 0.00 in /  0 mm
12:58 43.2 °F /  6.2 °C 31.8 °F /  -0.1 °C 30.27 in /  1024.9 hPa ENE 3.2 mph /  5.1 km/h 3.5 mph /  5.6 km/h 64 % 0.00 in /  0 mm
13:03 43.1 °F /  6.2 °C 31.0 °F /  -0.6 °C 30.27 in /  1024.9 hPa NE 2.0 mph /  3.2 km/h 5.0 mph /  8 km/h 62 % 0.00 in /  0 mm
13:08 43.0 °F /  6.1 °C 31.7 °F /  -0.2 °C 30.27 in /  1024.9 hPa NE 3.0 mph /  4.8 km/h 5.0 mph /  8 km/h 64 % 0.00 in /  0 mm
13:13 42.8 °F /  6 °C 31.8 °F /  -0.1 °C 30.27 in /  1024.9 hPa NE 0.1 mph /  0.2 km/h 3.5 mph /  5.6 km/h 65 % 0.00 in /  0 mm
13:18 42.6 °F /  5.9 °C 31.3 °F /  -0.4 °C 30.27 in /  1024.9 hPa NE 2.0 mph /  3.2 km/h 5.0 mph /  8 km/h 64 % 0.00 in /  0 mm
13:23 42.6 °F /  5.9 °C 31.6 °F /  -0.2 °C 30.27 in /  1024.9 hPa NNE 2.0 mph /  3.2 km/h 6.0 mph /  9.7 km/h 65 % 0.00 in /  0 mm
13:28 42.5 °F /  5.8 °C 31.6 °F /  -0.2 °C 30.26 in /  1024.6 hPa NE 2.0 mph /  3.2 km/h 5.0 mph /  8 km/h 65 % 0.00 in /  0 mm
13:33 42.5 °F /  5.8 °C 31.2 °F /  -0.4 °C 30.26 in /  1024.6 hPa ENE 2.9 mph /  4.7 km/h 3.5 mph /  5.6 km/h 64 % 0.00 in /  0 mm
13:38 42.5 °F /  5.8 °C 31.6 °F /  -0.2 °C 30.26 in /  1024.6 hPa NE 1.0 mph /  1.6 km/h 4.0 mph /  6.4 km/h 65 % 0.00 in /  0 mm
13:43 42.7 °F /  5.9 °C 32.1 °F /  0.1 °C 30.25 in /  1024.3 hPa NE 2.0 mph /  3.2 km/h 5.0 mph /  8 km/h 66 % 0.00 in /  0 mm
13:48 42.7 °F /  5.9 °C 32.1 °F /  0.1 °C 30.25 in /  1024.3 hPa NE 2.0 mph /  3.2 km/h 5.0 mph /  8 km/h 66 % 0.00 in /  0 mm
13:53 42.6 °F /  5.9 °C 32.4 °F /  0.2 °C 30.25 in /  1024.3 hPa NE 2.0 mph /  3.2 km/h 5.0 mph /  8 km/h 67 % 0.00 in /  0 mm
13:58 42.4 °F /  5.8 °C 31.8 °F /  -0.1 °C 30.25 in /  1024.3 hPa ENE 2.8 mph /  4.5 km/h 4.0 mph /  6.4 km/h 66 % 0.00 in /  0 mm
14:03 42.3 °F /  5.7 °C 31.4 °F /  -0.3 °C 30.24 in /  1023.9 hPa ENE 1.0 mph /  1.6 km/h 5.0 mph /  8 km/h 65 % 0.00 in /  0 mm
14:08 42.3 °F /  5.7 °C 31.4 °F /  -0.3 °C 30.24 in /  1023.9 hPa ENE 2.0 mph /  3.2 km/h 6.0 mph /  9.7 km/h 65 % 0.00 in /  0 mm
14:13 42.0 °F /  5.6 °C 31.1 °F /  -0.5 °C 30.23 in /  1023.6 hPa NE 3.4 mph /  5.5 km/h 5.0 mph /  8 km/h 65 % 0.00 in /  0 mm
14:18 41.9 °F /  5.5 °C 31.4 °F /  -0.3 °C 30.23 in /  1023.6 hPa NNE 2.0 mph /  3.2 km/h 4.0 mph /  6.4 km/h 66 % 0.00 in /  0 mm
14:23 42.0 °F /  5.6 °C 31.5 °F /  -0.3 °C 30.23 in /  1023.6 hPa NE 3.0 mph /  4.8 km/h 5.0 mph /  8 km/h 66 % 0.00 in /  0 mm
14:28 42.0 °F /  5.6 °C 31.8 °F /  -0.1 °C 30.23 in /  1023.6 hPa ENE 1.0 mph /  1.6 km/h 4.0 mph /  6.4 km/h 67 % 0.00 in /  0 mm
14:33 42.0 °F /  5.6 °C 31.5 °F /  -0.3 °C 30.23 in /  1023.6 hPa ENE 2.1 mph /  3.4 km/h 4.6 mph /  7.4 km/h 66 % 0.00 in /  0 mm
14:38 42.0 °F /  5.6 °C 32.2 °F /  0.1 °C 30.23 in /  1023.6 hPa NE 5.0 mph /  8 km/h 6.0 mph /  9.7 km/h 68 % 0.00 in /  0 mm
14:43 42.2 °F /  5.7 °C 32.0 °F /  0 °C 30.23 in /  1023.6 hPa NNE 1.0 mph /  1.6 km/h 4.0 mph /  6.4 km/h 67 % 0.00 in /  0 mm
14:48 42.2 °F /  5.7 °C 31.6 °F /  -0.2 °C 30.23 in /  1023.6 hPa NE 2.0 mph /  3.2 km/h 7.0 mph /  11.3 km/h 66 % 0.00 in /  0 mm
14:53 42.2 °F /  5.7 °C 32.0 °F /  0 °C 30.23 in /  1023.6 hPa NE 1.8 mph /  2.9 km/h 4.6 mph /  7.4 km/h 67 % 0.00 in /  0 mm
14:58 42.3 °F /  5.7 °C 32.5 °F /  0.3 °C 30.23 in /  1023.6 hPa NE 0.7 mph /  1.1 km/h 2.0 mph /  3.2 km/h 68 % 0.00 in /  0 mm
15:03 42.5 °F /  5.8 °C 32.3 °F /  0.2 °C 30.22 in /  1023.2 hPa SSW 3.7 mph /  6 km/h 7.0 mph /  11.3 km/h 67 % 0.00 in /  0 mm
15:08 42.9 °F /  6.1 °C 32.3 °F /  0.2 °C 30.23 in /  1023.6 hPa WNW 1.4 mph /  2.3 km/h 3.5 mph /  5.6 km/h 66 % 0.00 in /  0 mm
15:13 43.3 °F /  6.3 °C 31.9 °F /  -0.1 °C 30.23 in /  1023.6 hPa West 3.5 mph /  5.6 km/h 5.8 mph /  9.3 km/h 64 % 0.00 in /  0 mm
15:19 44.0 °F /  6.7 °C 31.4 °F /  -0.3 °C 30.22 in /  1023.2 hPa WSW 3.7 mph /  6 km/h 5.8 mph /  9.3 km/h 61 % 0.00 in /  0 mm
15:24 44.4 °F /  6.9 °C 31.4 °F /  -0.3 °C 30.21 in /  1022.9 hPa South 3.9 mph /  6.3 km/h 5.0 mph /  8 km/h 60 % 0.00 in /  0 mm
15:29 44.6 °F /  7 °C 32.4 °F /  0.2 °C 30.21 in /  1022.9 hPa South 2.2 mph /  3.5 km/h 3.5 mph /  5.6 km/h 62 % 0.00 in /  0 mm
15:34 44.9 °F /  7.2 °C 31.8 °F /  -0.1 °C 30.21 in /  1022.9 hPa SSW 2.0 mph /  3.2 km/h 4.6 mph /  7.4 km/h 60 % 0.00 in /  0 mm
15:39 45.1 °F /  7.3 °C 32.4 °F /  0.2 °C 30.21 in /  1022.9 hPa SSW 2.5 mph /  4 km/h 6.9 mph /  11.1 km/h 61 % 0.00 in /  0 mm
15:44 45.2 °F /  7.3 °C 32.1 °F /  0.1 °C 30.20 in /  1022.6 hPa SSW 1.9 mph /  3.1 km/h 3.5 mph /  5.6 km/h 60 % 0.00 in /  0 mm
15:49 45.3 °F /  7.4 °C 32.2 °F /  0.1 °C 30.21 in /  1022.9 hPa South 3.3 mph /  5.3 km/h 6.9 mph /  11.1 km/h 60 % 0.00 in /  0 mm
15:50 45.3 °F /  7.4 °C 32.6 °F /  0.3 °C 30.20 in /  1022.6 hPa SSW 3.1 mph /  5 km/h 5.0 mph /  8 km/h 61 % 0.00 in /  0 mm
15:55 45.0 °F /  7.2 °C 31.5 °F /  -0.3 °C 30.21 in /  1022.9 hPa SSW 2.9 mph /  4.7 km/h 6.9 mph /  11.1 km/h 59 % 0.00 in /  0 mm
16:00 44.8 °F /  7.1 °C 31.8 °F /  -0.1 °C 30.21 in /  1022.9 hPa SW 2.0 mph /  3.2 km/h 6.9 mph /  11.1 km/h 60 % 0.00 in /  0 mm
16:05 44.7 °F /  7.1 °C 31.7 °F /  -0.2 °C 30.22 in /  1023.2 hPa SSW 3.6 mph /  5.8 km/h 5.8 mph /  9.3 km/h 60 % 0.00 in /  0 mm
16:10 44.6 °F /  7 °C 31.6 °F /  -0.2 °C 30.22 in /  1023.2 hPa SSW 3.5 mph /  5.6 km/h 8.1 mph /  13 km/h 60 % 0.00 in /  0 mm
16:15 44.4 °F /  6.9 °C 31.4 °F /  -0.3 °C 30.21 in /  1022.9 hPa WSW 2.1 mph /  3.4 km/h 6.9 mph /  11.1 km/h 60 % 0.00 in /  0 mm
16:20 44.3 °F /  6.8 °C 31.3 °F /  -0.4 °C 30.21 in /  1022.9 hPa SSW 0.5 mph /  0.8 km/h 3.5 mph /  5.6 km/h 60 % 0.00 in /  0 mm
16:25 44.2 °F /  6.8 °C 31.6 °F /  -0.2 °C 30.21 in /  1022.9 hPa SSW 3.8 mph /  6.1 km/h 7.0 mph /  11.3 km/h 61 % 0.00 in /  0 mm
16:30 43.9 °F /  6.6 °C 31.3 °F /  -0.4 °C 30.20 in /  1022.6 hPa South 3.7 mph /  6 km/h 6.9 mph /  11.1 km/h 61 % 0.00 in /  0 mm
16:35 43.7 °F /  6.5 °C 31.5 °F /  -0.3 °C 30.20 in /  1022.6 hPa South 2.9 mph /  4.7 km/h 5.8 mph /  9.3 km/h 62 % 0.00 in /  0 mm
16:40 43.6 °F /  6.4 °C 31.8 °F /  -0.1 °C 30.20 in /  1022.6 hPa South 0.9 mph /  1.4 km/h 3.5 mph /  5.6 km/h 63 % 0.00 in /  0 mm
16:45 43.4 °F /  6.3 °C 31.6 °F /  -0.2 °C 30.20 in /  1022.6 hPa South 1.0 mph /  1.6 km/h 3.5 mph /  5.6 km/h 63 % 0.00 in /  0 mm
16:47 43.4 °F /  6.3 °C 31.6 °F /  -0.2 °C 30.20 in /  1022.6 hPa South 0.9 mph /  1.4 km/h 5.0 mph /  8 km/h 63 % 0.00 in /  0 mm
16:52 43.2 °F /  6.2 °C 31.8 °F /  -0.1 °C 30.20 in /  1022.6 hPa South 1.1 mph /  1.8 km/h 1.2 mph /  1.9 km/h 64 % 0.00 in /  0 mm
16:57 43.1 °F /  6.2 °C 31.7 °F /  -0.2 °C 30.20 in /  1022.6 hPa SSW 1.8 mph /  2.9 km/h 3.5 mph /  5.6 km/h 64 % 0.00 in /  0 mm
17:02 42.9 °F /  6.1 °C 31.6 °F /  -0.2 °C 30.20 in /  1022.6 hPa SSW 2.3 mph /  3.7 km/h 4.6 mph /  7.4 km/h 64 % 0.00 in /  0 mm
17:07 42.8 °F /  6 °C 31.8 °F /  -0.1 °C 30.20 in /  1022.6 hPa South 4.7 mph /  7.6 km/h 8.1 mph /  13 km/h 65 % 0.00 in /  0 mm
17:12 42.7 °F /  5.9 °C 32.1 °F /  0.1 °C 30.20 in /  1022.6 hPa SSW 1.0 mph /  1.6 km/h 2.3 mph /  3.7 km/h 66 % 0.00 in /  0 mm
17:17 42.5 °F /  5.8 °C 31.9 °F /  -0.1 °C 30.19 in /  1022.2 hPa SSE 2.5 mph /  4 km/h 4.6 mph /  7.4 km/h 66 % 0.00 in /  0 mm
17:22 42.4 °F /  5.8 °C 31.8 °F /  -0.1 °C 30.18 in /  1021.9 hPa SSE 3.8 mph /  6.1 km/h 6.9 mph /  11.1 km/h 66 % 0.00 in /  0 mm
17:27 42.2 °F /  5.7 °C 31.6 °F /  -0.2 °C 30.18 in /  1021.9 hPa SSE 3.1 mph /  5 km/h 5.0 mph /  8 km/h 66 % 0.00 in /  0 mm
17:32 42.1 °F /  5.6 °C 31.9 °F /  -0.1 °C 30.18 in /  1021.9 hPa SSE 2.0 mph /  3.2 km/h 4.6 mph /  7.4 km/h 67 % 0.00 in /  0 mm
17:37 42.0 °F /  5.6 °C 32.2 °F /  0.1 °C 30.18 in /  1021.9 hPa SSW 3.3 mph /  5.3 km/h 6.9 mph /  11.1 km/h 68 % 0.00 in /  0 mm
17:42 41.9 °F /  5.5 °C 32.5 °F /  0.3 °C 30.19 in /  1022.2 hPa South 2.5 mph /  4 km/h 6.0 mph /  9.7 km/h 69 % 0.00 in /  0 mm
17:47 41.8 °F /  5.4 °C 32.4 °F /  0.2 °C 30.19 in /  1022.2 hPa SSE 2.8 mph /  4.5 km/h 6.0 mph /  9.7 km/h 69 % 0.00 in /  0 mm
17:52 41.8 °F /  5.4 °C 32.7 °F /  0.4 °C 30.19 in /  1022.2 hPa SSE 2.4 mph /  3.9 km/h 3.5 mph /  5.6 km/h 70 % 0.00 in /  0 mm
17:57 41.6 °F /  5.3 °C 32.5 °F /  0.3 °C 30.18 in /  1021.9 hPa SE 4.5 mph /  7.2 km/h 5.0 mph /  8 km/h 70 % 0.00 in /  0 mm
18:02 41.5 °F /  5.3 °C 32.4 °F /  0.2 °C 30.18 in /  1021.9 hPa SSE 1.6 mph /  2.6 km/h 3.5 mph /  5.6 km/h 70 % 0.00 in /  0 mm
18:07 41.5 °F /  5.3 °C 32.4 °F /  0.2 °C 30.19 in /  1022.2 hPa South 2.4 mph /  3.9 km/h 5.8 mph /  9.3 km/h 70 % 0.00 in /  0 mm
18:12 41.4 °F /  5.2 °C 32.7 °F /  0.4 °C 30.19 in /  1022.2 hPa South 1.4 mph /  2.3 km/h 4.0 mph /  6.4 km/h 71 % 0.00 in /  0 mm
18:17 41.3 °F /  5.2 °C 32.6 °F /  0.3 °C 30.19 in /  1022.2 hPa SSE 2.5 mph /  4 km/h 4.6 mph /  7.4 km/h 71 % 0.00 in /  0 mm
18:18 41.3 °F /  5.2 °C 32.6 °F /  0.3 °C 30.19 in /  1022.2 hPa SSW 1.9 mph /  3.1 km/h 5.0 mph /  8 km/h 71 % 0.00 in /  0 mm
18:23 41.2 °F /  5.1 °C 32.5 °F /  0.3 °C 30.19 in /  1022.2 hPa SSW 1.3 mph /  2.1 km/h 3.5 mph /  5.6 km/h 71 % 0.00 in /  0 mm
18:28 41.1 °F /  5.1 °C 32.8 °F /  0.4 °C 30.20 in /  1022.6 hPa South 2.3 mph /  3.7 km/h 4.0 mph /  6.4 km/h 72 % 0.00 in /  0 mm
18:34 41.0 °F /  5 °C 32.7 °F /  0.4 °C 30.19 in /  1022.2 hPa SSW 1.0 mph /  1.6 km/h 4.0 mph /  6.4 km/h 72 % 0.00 in /  0 mm
18:39 40.9 °F /  4.9 °C 32.6 °F /  0.3 °C 30.19 in /  1022.2 hPa South 0.9 mph /  1.4 km/h 2.3 mph /  3.7 km/h 72 % 0.00 in /  0 mm
18:44 40.8 °F /  4.9 °C 32.8 °F /  0.4 °C 30.19 in /  1022.2 hPa South 2.1 mph /  3.4 km/h 3.5 mph /  5.6 km/h 73 % 0.00 in /  0 mm
18:49 40.7 °F /  4.8 °C 32.7 °F /  0.4 °C 30.18 in /  1021.9 hPa SSE 1.6 mph /  2.6 km/h 4.0 mph /  6.4 km/h 73 % 0.00 in /  0 mm
18:54 40.6 °F /  4.8 °C 32.6 °F /  0.3 °C 30.17 in /  1021.6 hPa South 0.3 mph /  0.5 km/h 2.3 mph /  3.7 km/h 73 % 0.00 in /  0 mm
18:59 40.6 °F /  4.8 °C 33.0 °F /  0.6 °C 30.17 in /  1021.6 hPa SSE 2.7 mph /  4.3 km/h 5.8 mph /  9.3 km/h 74 % 0.00 in /  0 mm
19:04 40.4 °F /  4.7 °C 33.1 °F /  0.6 °C 30.17 in /  1021.6 hPa South 1.8 mph /  2.9 km/h 3.5 mph /  5.6 km/h 75 % 0.00 in /  0 mm
19:09 40.4 °F /  4.7 °C 33.1 °F /  0.6 °C 30.17 in /  1021.6 hPa SSW 1.2 mph /  1.9 km/h 3.5 mph /  5.6 km/h 75 % 0.00 in /  0 mm
19:14 40.3 °F /  4.6 °C 33.0 °F /  0.6 °C 30.17 in /  1021.6 hPa South 2.3 mph /  3.7 km/h 4.6 mph /  7.4 km/h 75 % 0.00 in /  0 mm
19:19 40.2 °F /  4.6 °C 33.2 °F /  0.7 °C 30.17 in /  1021.6 hPa SSW 1.8 mph /  2.9 km/h 4.6 mph /  7.4 km/h 76 % 0.00 in /  0 mm
19:24 40.2 °F /  4.6 °C 33.2 °F /  0.7 °C 30.17 in /  1021.6 hPa SSW 2.1 mph /  3.4 km/h 6.0 mph /  9.7 km/h 76 % 0.00 in /  0 mm
19:29 40.2 °F /  4.6 °C 33.2 °F /  0.7 °C 30.16 in /  1021.2 hPa South 2.5 mph /  4 km/h 3.5 mph /  5.6 km/h 76 % 0.00 in /  0 mm
19:34 40.2 °F /  4.6 °C 33.2 °F /  0.7 °C 30.15 in /  1020.9 hPa SSE 3.6 mph /  5.8 km/h 6.9 mph /  11.1 km/h 76 % 0.00 in /  0 mm
19:39 40.2 °F /  4.6 °C 33.6 °F /  0.9 °C 30.16 in /  1021.2 hPa SSW 2.5 mph /  4 km/h 3.5 mph /  5.6 km/h 77 % 0.00 in /  0 mm
19:44 40.2 °F /  4.6 °C 33.6 °F /  0.9 °C 30.16 in /  1021.2 hPa SSW 0.1 mph /  0.2 km/h 3.5 mph /  5.6 km/h 77 % 0.00 in /  0 mm
19:49 40.2 °F /  4.6 °C 33.6 °F /  0.9 °C 30.16 in /  1021.2 hPa SSW 2.8 mph /  4.5 km/h 4.0 mph /  6.4 km/h 77 % 0.00 in /  0 mm
19:55 40.2 °F /  4.6 °C 33.6 °F /  0.9 °C 30.16 in /  1021.2 hPa South 3.3 mph /  5.3 km/h 6.0 mph /  9.7 km/h 77 % 0.00 in /  0 mm
20:00 40.2 °F /  4.6 °C 33.6 °F /  0.9 °C 30.16 in /  1021.2 hPa SSW 1.4 mph /  2.3 km/h 3.5 mph /  5.6 km/h 77 % 0.00 in /  0 mm
20:05 40.2 °F /  4.6 °C 33.6 °F /  0.9 °C 30.16 in /  1021.2 hPa South 4.0 mph /  6.4 km/h 5.8 mph /  9.3 km/h 77 % 0.00 in /  0 mm
20:10 40.2 °F /  4.6 °C 33.6 °F /  0.9 °C 30.16 in /  1021.2 hPa South 2.0 mph /  3.2 km/h 3.5 mph /  5.6 km/h 77 % 0.00 in /  0 mm
20:15 40.2 °F /  4.6 °C 33.6 °F /  0.9 °C 30.16 in /  1021.2 hPa South 1.4 mph /  2.3 km/h 5.8 mph /  9.3 km/h 77 % 0.00 in /  0 mm
20:20 40.2 °F /  4.6 °C 33.6 °F /  0.9 °C 30.16 in /  1021.2 hPa SSW 4.3 mph /  6.9 km/h 7.0 mph /  11.3 km/h 77 % 0.00 in /  0 mm
20:25 40.3 °F /  4.6 °C 33.7 °F /  0.9 °C 30.16 in /  1021.2 hPa South 3.3 mph /  5.3 km/h 3.5 mph /  5.6 km/h 77 % 0.00 in /  0 mm
20:30 40.3 °F /  4.6 °C 33.7 °F /  0.9 °C 30.16 in /  1021.2 hPa South 1.6 mph /  2.6 km/h 2.3 mph /  3.7 km/h 77 % 0.00 in /  0 mm
20:35 40.4 °F /  4.7 °C 33.8 °F /  1 °C 30.16 in /  1021.2 hPa SSW 2.5 mph /  4 km/h 5.8 mph /  9.3 km/h 77 % 0.00 in /  0 mm
20:40 40.4 °F /  4.7 °C 33.8 °F /  1 °C 30.15 in /  1020.9 hPa SSW 3.9 mph /  6.3 km/h 7.0 mph /  11.3 km/h 77 % 0.00 in /  0 mm
20:45 40.4 °F /  4.7 °C 34.1 °F /  1.2 °C 30.15 in /  1020.9 hPa SW 2.9 mph /  4.7 km/h 8.1 mph /  13 km/h 78 % 0.00 in /  0 mm
20:50 40.4 °F /  4.7 °C 34.1 °F /  1.2 °C 30.16 in /  1021.2 hPa SSW 1.4 mph /  2.3 km/h 3.5 mph /  5.6 km/h 78 % 0.00 in /  0 mm
20:55 40.5 °F /  4.7 °C 34.2 °F /  1.2 °C 30.16 in /  1021.2 hPa SSW 1.7 mph /  2.7 km/h 3.5 mph /  5.6 km/h 78 % 0.00 in /  0 mm
21:00 40.5 °F /  4.7 °C 34.2 °F /  1.2 °C 30.16 in /  1021.2 hPa SSW 1.3 mph /  2.1 km/h 4.6 mph /  7.4 km/h 78 % 0.00 in /  0 mm
21:05 40.5 °F /  4.7 °C 34.2 °F /  1.2 °C 30.15 in /  1020.9 hPa SSW 0.8 mph /  1.3 km/h 3.5 mph /  5.6 km/h 78 % 0.00 in /  0 mm
21:10 40.5 °F /  4.7 °C 34.2 °F /  1.2 °C 30.16 in /  1021.2 hPa SSW 0.4 mph /  0.6 km/h 3.5 mph /  5.6 km/h 78 % 0.00 in /  0 mm
21:15 40.5 °F /  4.7 °C 34.2 °F /  1.2 °C 30.16 in /  1021.2 hPa SSW 1.2 mph /  1.9 km/h 4.6 mph /  7.4 km/h 78 % 0.00 in /  0 mm
21:20 40.5 °F /  4.7 °C 34.5 °F /  1.4 °C 30.15 in /  1020.9 hPa South 0.9 mph /  1.4 km/h 2.3 mph /  3.7 km/h 79 % 0.00 in /  0 mm
21:25 40.5 °F /  4.7 °C 34.5 °F /  1.4 °C 30.15 in /  1020.9 hPa South 0.2 mph /  0.3 km/h 2.3 mph /  3.7 km/h 79 % 0.00 in /  0 mm
21:30 40.5 °F /  4.7 °C 34.5 °F /  1.4 °C 30.15 in /  1020.9 hPa SSW 2.1 mph /  3.4 km/h 3.5 mph /  5.6 km/h 79 % 0.00 in /  0 mm
21:35 40.5 °F /  4.7 °C 34.5 °F /  1.4 °C 30.15 in /  1020.9 hPa SSW 1.8 mph /  2.9 km/h 4.6 mph /  7.4 km/h 79 % 0.00 in /  0 mm
21:40 40.5 °F /  4.7 °C 34.5 °F /  1.4 °C 30.15 in /  1020.9 hPa South 1.6 mph /  2.6 km/h 4.0 mph /  6.4 km/h 79 % 0.00 in /  0 mm
21:45 40.5 °F /  4.7 °C 34.8 °F /  1.6 °C 30.15 in /  1020.9 hPa SSW 2.9 mph /  4.7 km/h 4.6 mph /  7.4 km/h 80 % 0.00 in /  0 mm
21:50 40.5 °F /  4.7 °C 35.1 °F /  1.7 °C 30.14 in /  1020.5 hPa SSW 0.5 mph /  0.8 km/h 2.3 mph /  3.7 km/h 81 % 0.00 in /  0 mm
21:56 40.5 °F /  4.7 °C 35.1 °F /  1.7 °C 30.15 in /  1020.9 hPa SW 2.9 mph /  4.7 km/h 3.5 mph /  5.6 km/h 81 % 0.00 in /  0 mm
22:01 40.5 °F /  4.7 °C 35.1 °F /  1.7 °C 30.14 in /  1020.5 hPa SSW 2.3 mph /  3.7 km/h 4.6 mph /  7.4 km/h 81 % 0.00 in /  0 mm
22:06 40.5 °F /  4.7 °C 35.4 °F /  1.9 °C 30.14 in /  1020.5 hPa SSW 2.5 mph /  4 km/h 3.5 mph /  5.6 km/h 82 % 0.00 in /  0 mm
22:11 40.5 °F /  4.7 °C 35.4 °F /  1.9 °C 30.14 in /  1020.5 hPa SW 1.7 mph /  2.7 km/h 6.9 mph /  11.1 km/h 82 % 0.00 in /  0 mm
22:16 40.5 °F /  4.7 °C 35.4 °F /  1.9 °C 30.14 in /  1020.5 hPa SSW 0.7 mph /  1.1 km/h 3.5 mph /  5.6 km/h 82 % 0.00 in /  0 mm
22:21 40.5 °F /  4.7 °C 35.4 °F /  1.9 °C 30.13 in /  1020.2 hPa South 2.4 mph /  3.9 km/h 4.6 mph /  7.4 km/h 82 % 0.00 in /  0 mm
22:26 40.6 °F /  4.8 °C 35.5 °F /  1.9 °C 30.13 in /  1020.2 hPa South 0.6 mph /  1 km/h 2.3 mph /  3.7 km/h 82 % 0.00 in /  0 mm
22:31 40.6 °F /  4.8 °C 35.5 °F /  1.9 °C 30.12 in /  1019.9 hPa SSW 1.8 mph /  2.9 km/h 4.0 mph /  6.4 km/h 82 % 0.00 in /  0 mm
22:36 40.6 °F /  4.8 °C 35.5 °F /  1.9 °C 30.12 in /  1019.9 hPa SSW 0.3 mph /  0.5 km/h 2.3 mph /  3.7 km/h 82 % 0.00 in /  0 mm
22:41 40.6 °F /  4.8 °C 35.8 °F /  2.1 °C 30.12 in /  1019.9 hPa Calm   2.3 mph /  3.7 km/h 83 % 0.00 in /  0 mm
22:46 40.6 °F /  4.8 °C 35.8 °F /  2.1 °C 30.12 in /  1019.9 hPa SW 0.8 mph /  1.3 km/h 3.5 mph /  5.6 km/h 83 % 0.00 in /  0 mm
22:51 40.6 °F /  4.8 °C 36.1 °F /  2.3 °C 30.12 in /  1019.9 hPa South 0.3 mph /  0.5 km/h 2.3 mph /  3.7 km/h 84 % 0.00 in /  0 mm
22:56 40.6 °F /  4.8 °C 36.1 °F /  2.3 °C 30.11 in /  1019.5 hPa SW 0.1 mph /  0.2 km/h 2.0 mph /  3.2 km/h 84 % 0.00 in /  0 mm
23:01 40.6 °F /  4.8 °C 36.1 °F /  2.3 °C 30.11 in /  1019.5 hPa SW 1.2 mph /  1.9 km/h 3.5 mph /  5.6 km/h 84 % 0.00 in /  0 mm
23:06 40.6 °F /  4.8 °C 36.1 °F /  2.3 °C 30.11 in /  1019.5 hPa SW 1.7 mph /  2.7 km/h 3.5 mph /  5.6 km/h 84 % 0.00 in /  0 mm
23:12 40.6 °F /  4.8 °C 36.1 °F /  2.3 °C 30.10 in /  1019.2 hPa SW 2.9 mph /  4.7 km/h 5.0 mph /  8 km/h 84 % 0.00 in /  0 mm
23:17 40.6 °F /  4.8 °C 36.1 °F /  2.3 °C 30.10 in /  1019.2 hPa SW 3.5 mph /  5.6 km/h 5.8 mph /  9.3 km/h 84 % 0.00 in /  0 mm
23:22 40.7 °F /  4.8 °C 36.2 °F /  2.3 °C 30.10 in /  1019.2 hPa SSW 2.8 mph /  4.5 km/h 7.0 mph /  11.3 km/h 84 % 0.00 in /  0 mm
23:27 40.7 °F /  4.8 °C 36.5 °F /  2.5 °C 30.10 in /  1019.2 hPa SSW 0.7 mph /  1.1 km/h 2.3 mph /  3.7 km/h 85 % 0.00 in /  0 mm
23:32 40.7 °F /  4.8 °C 36.5 °F /  2.5 °C 30.10 in /  1019.2 hPa SW 2.0 mph /  3.2 km/h 3.5 mph /  5.6 km/h 85 % 0.00 in /  0 mm
23:37 40.8 °F /  4.9 °C 36.6 °F /  2.6 °C 30.10 in /  1019.2 hPa SW 1.5 mph /  2.4 km/h 4.6 mph /  7.4 km/h 85 % 0.00 in /  0 mm
23:42 40.8 °F /  4.9 °C 36.6 °F /  2.6 °C 30.10 in /  1019.2 hPa SSW 4.3 mph /  6.9 km/h 8.1 mph /  13 km/h 85 % 0.00 in /  0 mm
23:47 40.9 °F /  4.9 °C 36.7 °F /  2.6 °C 30.09 in /  1018.8 hPa SSE 4.9 mph /  7.9 km/h 9.2 mph /  14.8 km/h 85 % 0.00 in /  0 mm
23:52 40.9 °F /  4.9 °C 36.7 °F /  2.6 °C 30.08 in /  1018.5 hPa South 5.6 mph /  9 km/h 6.0 mph /  9.7 km/h 85 % 0.00 in /  0 mm
23:57 41.0 °F /  5 °C 36.8 °F /  2.7 °C 30.08 in /  1018.5 hPa SW 6.3 mph /  10.1 km/h 11.0 mph /  17.7 km/h 85 % 0.00 in /  0 mm
Crab Meadow Weather
Compliments of Weather Underground - 3 mb

Script developed by  Jim McMurry - jmcmurry@mwt.net Adapted for the template by  Wim van der Kuil - Leuven-Template.eu

Weather Terms: Freeze Warning - Widespread temperatures at or below 32°F during the growing season. A freeze may occur with or without frost. A hard freeze occurs with temperatures below 28°F. Growing season is based on the average date of first and last freeze at O'Hare. It begins April 17 and ends October 27.